Bookmark and Share
Track history (hours):
 

Maike D

Last reported at 2014-Apr-11 12:32 UTC. Time now 2014-Apr-16 10:39 UTC.
Position N 41°20' E 029°18'.

Length 133 m; draft 7.1 m.

Type: Ship (hazmat cat A). MMSI: 305739000.

NotesDate/timePositionNaut miles runAvg speedWind from/ knotsBaromVisibWave heightAir tempDewpointWater temp
2014-Apr-11 12:32N 41°20' E 029°18'281 8.5
2014-Apr-10 03:33N 37°27' E 025°55'49914.9
2014-Apr-08 18:06N 32°59' E 034°31'916.0
2014-Apr-08 17:33N 32°57' E 034°41'156 4.8
2014-Apr-07 09:17N 32°03' E 031°48'116 5.1
2014-Apr-06 10:25N 31°10' E 029°47'5 1.0
2014-Apr-06 05:31N 31°14' E 029°43'0 0.0
2014-Apr-06 02:32N 31°14' E 029°43'0 0.0
2014-Apr-05 20:33N 31°14' E 029°43'0 0.0
2014-Apr-05 18:03N 31°14' E 029°43'0 0.1
2014-Apr-05 17:30N 31°14' E 029°43'0 0.0
2014-Apr-05 16:33N 31°14' E 029°43'0 0.0
2014-Apr-05 15:33N 31°14' E 029°44'0 0.0
2014-Apr-05 14:31N 31°14' E 029°44'0 0.0
2014-Apr-05 13:27N 31°14' E 029°44'0 0.0
2014-Apr-05 12:33N 31°14' E 029°44'0 0.1
2014-Apr-05 11:27N 31°14' E 029°44'0 0.1
2014-Apr-05 10:08N 31°14' E 029°44'0 0.1
2014-Apr-05 09:33N 31°14' E 029°44'1510.4
2014-Apr-05 08:09N 31°29' E 029°39'5815.0
2014-Apr-05 04:14N 32°23' E 029°15'1015.0
2014-Apr-05 03:33N 32°33' E 029°11'3015.1
2014-Apr-05 01:33N 33°01' E 028°58'1615.6
2014-Apr-05 00:33N 33°15' E 028°51'1515.3
2014-Apr-04 23:33N 33°29' E 028°44'1615.3
2014-Apr-04 22:29N 33°44' E 028°35'1415.4
2014-Apr-04 21:33N 33°57' E 028°28'12415.5
2014-Apr-04 13:33N 35°50' E 027°25'1514.6
2014-Apr-04 12:33N 36°02' E 027°15'1615.4
2014-Apr-04 11:32N 36°13' E 027°02'1515.4
2014-Apr-04 10:33N 36°25' E 026°50'1515.2
2014-Apr-04 09:33N 36°37' E 026°38'1515.2
2014-Apr-04 08:33N 36°47' E 026°24'1615.5
2014-Apr-04 07:32N 36°59' E 026°12'1515.6
2014-Apr-04 06:33N 37°13' E 026°03'1615.6
2014-Apr-04 05:33N 37°27' E 025°54'1715.2
2014-Apr-04 04:26N 37°43' E 025°50'2915.4
2014-Apr-04 02:33N 38°12' E 025°44'1515.1
2014-Apr-04 01:33N 38°27' E 025°44'93 4.2
2014-Apr-03 03:24N 39°59' E 025°57'  

Dump ship's entire track history

sailing weather and tide predictions

Maike D — V2FO4 — position and weather